Time;durP1;ratioP1;P1;durP2;ratioP2;P2;SDS_P1;SDS_P2;PMS_P1;PMS_P2;Temp;Humidity;BMP_temperature;BMP_pressure;BME280_temperature;BME280_humidity;BME280_pressure;Samples;Min_cycle;Max_cycle;Signal;HPM_P1;HPM_P2
2024/03/23 00:01:42;;;;;;;7.35;2.70;;;;;;;7.30;100.00;101116.22;5089642;28;20038;-39
2024/03/23 00:04:09;;;;;;;9.23;3.20;;;;;;;7.28;100.00;101115.63;5090240;28;20032;-39
2024/03/23 00:06:35;;;;;;;11.32;3.92;;;;;;;7.20;100.00;101124.69;5077921;28;20078;-39
2024/03/23 00:09:02;;;;;;;10.10;3.67;;;;;;;7.20;100.00;101122.00;5076353;28;20386;-39
2024/03/23 00:11:28;;;;;;;7.95;3.42;;;;;;;7.19;100.00;101120.34;5075738;28;20040;-39
2024/03/23 00:13:54;;;;;;;8.32;2.95;;;;;;;7.21;100.00;101119.09;5076237;28;20033;-39
2024/03/23 00:16:25;;;;;;;10.65;3.10;;;;;;;7.17;100.00;101117.00;5076281;28;20036;-37
2024/03/23 00:18:52;;;;;;;7.75;2.75;;;;;;;7.21;100.00;101123.66;5075912;28;20060;-38
2024/03/23 00:21:18;;;;;;;7.07;2.58;;;;;;;7.18;100.00;101119.50;5075918;28;20107;-38
2024/03/23 00:23:45;;;;;;;8.27;2.75;;;;;;;7.18;100.00;101116.00;5075880;28;20024;-38
2024/03/23 00:26:11;;;;;;;6.45;2.40;;;;;;;7.16;100.00;101097.34;5076311;28;20502;-38
2024/03/23 00:28:37;;;;;;;8.25;2.70;;;;;;;7.14;100.00;101104.81;5076024;28;20059;-38
2024/03/23 00:31:04;;;;;;;6.85;2.72;;;;;;;7.11;100.00;101090.94;5075677;28;20036;-38
2024/03/23 00:33:30;;;;;;;10.90;3.63;;;;;;;7.06;100.00;101091.53;5075375;28;20480;-39
2024/03/23 00:35:57;;;;;;;5.80;2.28;;;;;;;7.12;100.00;101081.81;5075306;28;20051;-39
2024/03/23 00:38:24;;;;;;;9.63;2.50;;;;;;;7.08;100.00;101069.84;5075557;28;20075;-39
2024/03/23 00:40:51;;;;;;;8.02;2.78;;;;;;;7.09;100.00;101066.09;5076327;28;20071;-39
2024/03/23 00:43:18;;;;;;;8.48;2.67;;;;;;;7.02;100.00;101071.44;5075135;28;20460;-39
2024/03/23 00:45:45;;;;;;;7.30;2.85;;;;;;;6.97;100.00;101077.44;5076049;28;20025;-39
2024/03/23 00:48:12;;;;;;;11.10;3.05;;;;;;;7.01;100.00;101077.03;5075313;28;20068;-39
2024/03/23 00:50:38;;;;;;;11.13;2.97;;;;;;;7.00;100.00;101080.75;5075361;28;20037;-39
2024/03/23 00:53:04;;;;;;;7.65;2.88;;;;;;;6.95;100.00;101081.38;5074895;28;20036;-39
2024/03/23 00:55:30;;;;;;;8.13;2.95;;;;;;;6.99;100.00;101068.34;5076395;28;20056;-39
2024/03/23 00:57:55;;;;;;;7.53;2.80;;;;;;;6.88;100.00;101065.22;5075518;28;20020;-39
2024/03/23 01:00:20;;;;;;;7.87;2.80;;;;;;;6.90;100.00;101067.69;5075988;28;20044;-39
2024/03/23 01:02:46;;;;;;;7.87;2.70;;;;;;;6.91;100.00;101064.81;5074858;28;20020;-39
2024/03/23 01:05:11;;;;;;;13.80;4.67;;;;;;;6.89;100.00;101069.56;5075044;28;20021;-39
2024/03/23 01:07:36;;;;;;;8.20;3.30;;;;;;;6.86;100.00;101067.25;5074990;28;20025;-39
2024/03/23 01:10:02;;;;;;;10.23;3.03;;;;;;;6.87;100.00;101087.72;5075261;28;20103;-39
2024/03/23 01:12:27;;;;;;;10.73;3.10;;;;;;;6.83;100.00;101085.66;5074922;28;20442;-39
2024/03/23 01:14:53;;;;;;;10.60;4.37;;;;;;;6.80;100.00;101068.06;5075314;28;20032;-39
2024/03/23 01:17:18;;;;;;;9.20;3.00;;;;;;;6.81;100.00;101077.78;5074319;28;20025;-39
2024/03/23 01:19:43;;;;;;;5.40;2.57;;;;;;;6.80;100.00;101056.50;5074859;28;20357;-39
2024/03/23 01:22:09;;;;;;;8.73;3.10;;;;;;;6.70;100.00;101048.81;5074704;28;20032;-38
2024/03/23 01:24:35;;;;;;;9.05;3.30;;;;;;;6.72;100.00;101060.19;5074968;28;20448;-39
2024/03/23 01:27:01;;;;;;;10.93;3.42;;;;;;;6.67;100.00;101051.88;5074798;28;20024;-39
2024/03/23 01:29:26;;;;;;;10.23;4.13;;;;;;;6.67;100.00;101051.88;5074483;28;20115;-39
2024/03/23 01:31:51;;;;;;;7.97;3.03;;;;;;;6.64;100.00;101044.25;5074541;28;20108;-39
2024/03/23 01:34:17;;;;;;;9.13;3.70;;;;;;;6.58;100.00;101045.84;5074915;28;20373;-39
2024/03/23 01:36:42;;;;;;;10.02;3.53;;;;;;;6.56;100.00;101033.66;5074124;28;20021;-39
2024/03/23 01:39:09;;;;;;;9.73;3.33;;;;;;;6.54;100.00;101027.63;5074886;28;20037;-39
2024/03/23 01:41:36;;;;;;;10.18;3.60;;;;;;;6.52;100.00;101017.09;5074207;28;20036;-39
2024/03/23 01:44:05;;;;;;;10.50;3.40;;;;;;;6.51;100.00;101012.75;5074755;28;20028;-39
2024/03/23 01:46:30;;;;;;;8.60;3.08;;;;;;;6.54;100.00;101020.44;5073823;28;20033;-39
2024/03/23 01:48:56;;;;;;;9.83;3.67;;;;;;;6.53;100.00;101016.06;5074472;28;20024;-39
2024/03/23 01:51:23;;;;;;;8.63;3.65;;;;;;;6.45;100.00;101000.97;5074262;28;20266;-40
2024/03/23 01:53:49;;;;;;;11.68;4.70;;;;;;;6.44;100.00;101002.00;5074206;28;20053;-39
2024/03/23 01:56:14;;;;;;;9.10;4.13;;;;;;;6.47;100.00;101014.19;5073897;28;20161;-38
2024/03/23 01:58:39;;;;;;;9.80;4.43;;;;;;;6.49;100.00;101005.91;5074551;28;20480;-38
2024/03/23 02:01:05;;;;;;;11.50;4.23;;;;;;;6.45;100.00;100992.91;5074442;28;20028;-38
2024/03/23 02:03:31;;;;;;;11.03;4.27;;;;;;;6.51;100.00;101002.00;5074226;28;20028;-38
2024/03/23 02:05:56;;;;;;;11.45;5.13;;;;;;;6.53;100.00;101009.88;5073635;28;20024;-38
2024/03/23 02:08:23;;;;;;;12.30;4.13;;;;;;;6.58;100.00;101010.09;5073895;28;20043;-38
2024/03/23 02:10:49;;;;;;;;;;;;;;;6.67;100.00;101014.25;5075026;28;20060;-38
2024/03/23 02:13:15;;;;;;;10.03;3.40;;;;;;;6.55;100.00;101016.72;5073734;28;19960;-38
2024/03/23 02:15:40;;;;;;;;;;;;;;;6.66;100.00;101007.25;5074073;28;20027;-38
2024/03/23 02:18:07;;;;;;;9.40;3.58;;;;;;;6.55;100.00;101010.50;5073345;28;19912;-38
2024/03/23 02:20:33;;;;;;;11.88;4.50;;;;;;;6.48;100.00;101004.25;5073986;28;20054;-39
2024/03/23 02:22:58;;;;;;;9.70;4.13;;;;;;;6.48;100.00;101004.25;5074139;28;20032;-39
2024/03/23 02:25:23;;;;;;;9.63;4.30;;;;;;;6.45;100.00;101000.13;5073564;28;20037;-39
2024/03/23 02:27:49;;;;;;;10.80;4.03;;;;;;;6.43;100.00;101004.84;5073646;28;20029;-39
2024/03/23 02:30:14;;;;;;;10.18;3.58;;;;;;;6.39;100.00;100987.47;5073489;28;20017;-39
2024/03/23 02:32:40;;;;;;;9.07;3.90;;;;;;;6.41;100.00;100990.81;5074172;28;20033;-39
2024/03/23 02:35:06;;;;;;;11.48;4.00;;;;;;;6.40;100.00;100986.47;5073119;28;20526;-39
2024/03/23 02:37:32;;;;;;;12.00;4.25;;;;;;;6.37;100.00;100985.00;5073158;28;20028;-39
2024/03/23 02:39:58;;;;;;;9.68;3.88;;;;;;;6.32;100.00;100986.63;5073148;28;20048;-39
2024/03/23 02:42:23;;;;;;;9.40;3.70;;;;;;;6.37;100.00;100995.75;5073610;28;20031;-39
2024/03/23 02:44:48;;;;;;;11.30;4.00;;;;;;;6.35;100.00;100983.56;5073339;28;20438;-39
2024/03/23 02:47:14;;;;;;;11.00;4.27;;;;;;;6.39;100.00;100988.34;5073314;28;20464;-39
2024/03/23 02:49:39;;;;;;;12.83;3.97;;;;;;;6.38;100.00;100983.97;5073426;28;20468;-39
2024/03/23 02:52:04;;;;;;;12.93;5.30;;;;;;;6.29;100.00;100977.09;5073264;28;20040;-39
2024/03/23 02:54:30;;;;;;;10.17;3.90;;;;;;;6.26;100.00;100972.16;5073971;28;20131;-39
2024/03/23 02:56:55;;;;;;;9.40;3.70;;;;;;;6.32;100.00;100989.31;5073322;28;20036;-39
2024/03/23 02:59:21;;;;;;;16.10;4.22;;;;;;;6.35;100.00;100989.75;5072942;28;20108;-39
2024/03/23 03:01:46;;;;;;;9.23;3.23;;;;;;;6.37;100.00;100986.88;5073750;28;20091;-39
2024/03/23 03:04:11;;;;;;;10.97;3.60;;;;;;;6.40;100.00;100987.31;5073188;28;20120;-39
2024/03/23 03:06:37;;;;;;;9.37;3.07;;;;;;;6.36;100.00;100988.72;5073754;28;20056;-39
2024/03/23 03:09:02;;;;;;;10.20;3.30;;;;;;;6.37;100.00;100998.44;5073689;28;20052;-39
2024/03/23 03:11:28;;;;;;;7.53;3.30;;;;;;;6.38;100.00;100993.88;5073846;28;20103;-39
2024/03/23 03:13:53;;;;;;;9.83;3.10;;;;;;;6.36;100.00;100996.78;5073061;28;20567;-39
2024/03/23 03:16:18;;;;;;;11.63;3.70;;;;;;;6.28;100.00;100977.31;5072664;28;20081;-39
2024/03/23 03:18:46;;;;;;;10.90;3.67;;;;;;;6.37;100.00;100995.75;5073839;28;20025;-39
2024/03/23 03:21:11;;;;;;;12.00;3.30;;;;;;;6.32;100.00;101002.75;5072948;28;20020;-39
2024/03/23 03:23:37;;;;;;;9.25;3.05;;;;;;;6.26;100.00;101006.25;5073529;28;20032;-39
2024/03/23 03:26:03;;;;;;;9.43;3.03;;;;;;;6.21;100.00;101006.00;5072971;28;20032;-39
2024/03/23 03:28:30;;;;;;;11.18;3.30;;;;;;;6.19;100.00;100998.94;5073740;28;20190;-39
2024/03/23 03:30:57;;;;;;;9.18;3.17;;;;;;;6.16;100.00;100985.94;5072821;28;20358;-39
2024/03/23 03:33:22;;;;;;;;;;;;;;;6.26;100.00;100993.63;5073336;28;20035;-39
2024/03/23 03:35:47;;;;;;;12.60;2.80;;;;;;;6.12;100.00;100995.41;5072827;28;19912;-39
2024/03/23 03:38:12;;;;;;;8.87;2.80;;;;;;;6.10;100.00;100988.56;5072893;28;20277;-39
2024/03/23 03:40:38;;;;;;;8.37;3.23;;;;;;;6.09;100.00;100984.22;5073544;28;20120;-39
2024/03/23 03:43:03;;;;;;;9.03;3.47;;;;;;;6.01;100.00;100982.56;5076588;28;20028;-39
2024/03/23 03:45:29;;;;;;;8.20;2.83;;;;;;;6.01;100.00;100987.09;5076857;28;20024;-39
2024/03/23 03:47:54;;;;;;;7.13;2.73;;;;;;;5.95;100.00;100986.00;5076481;28;20465;-39
2024/03/23 03:50:21;;;;;;;7.57;2.40;;;;;;;5.93;100.00;100986.22;5076998;28;20028;-39
2024/03/23 03:52:46;;;;;;;11.75;3.20;;;;;;;5.86;100.00;100990.69;5076045;28;20027;-39
2024/03/23 03:55:14;;;;;;;10.57;2.70;;;;;;;5.83;100.00;100980.34;5077164;28;20139;-39
2024/03/23 03:57:39;;;;;;;7.85;2.28;;;;;;;5.77;100.00;100978.44;5076266;28;20115;-39
2024/03/23 04:00:05;;;;;;;6.23;2.90;;;;;;;5.73;100.00;100985.22;5076332;28;20067;-39
2024/03/23 04:02:31;;;;;;;;;;;;;;;5.80;100.00;100978.03;5076296;28;20020;-39
2024/03/23 04:04:56;;;;;;;7.80;2.10;;;;;;;5.60;100.00;100972.53;5076516;28;19961;-39
2024/03/23 04:07:22;;;;;;;7.30;2.47;;;;;;;5.57;100.00;100982.84;5076411;28;20032;-39
2024/03/23 04:09:48;;;;;;;6.05;2.28;;;;;;;5.58;100.00;100976.44;5075844;28;20262;-39
2024/03/23 04:12:13;;;;;;;10.60;3.25;;;;;;;5.53;100.00;100981.56;5076135;28;20139;-39
2024/03/23 04:14:39;;;;;;;8.33;2.27;;;;;;;5.48;100.00;100982.16;5075951;28;20461;-39
2024/03/23 04:17:04;;;;;;;9.93;2.90;;;;;;;5.46;100.00;100969.94;5076005;28;20051;-39
2024/03/23 04:19:29;;;;;;;9.23;3.00;;;;;;;5.29;100.00;100956.81;5076221;28;20074;-39
2024/03/23 04:21:55;;;;;;;8.83;3.47;;;;;;;5.36;100.00;100967.59;5075670;28;20052;-39
2024/03/23 04:24:22;;;;;;;10.80;2.77;;;;;;;5.31;100.00;100965.50;5076206;28;20108;-39
2024/03/23 04:26:47;;;;;;;6.85;2.53;;;;;;;5.35;100.00;100980.19;5075776;28;20048;-39
2024/03/23 04:29:13;;;;;;;9.85;3.08;;;;;;;5.33;100.00;100974.19;5075975;28;20385;-39
2024/03/23 04:31:38;;;;;;;7.93;2.53;;;;;;;5.33;100.00;100974.19;5075729;28;20086;-39
2024/03/23 04:34:04;;;;;;;8.03;2.63;;;;;;;5.28;100.00;100978.47;5076028;28;20267;-39
2024/03/23 04:36:30;;;;;;;12.10;3.28;;;;;;;5.15;100.00;100963.09;5076273;28;20267;-39
2024/03/23 04:38:56;;;;;;;8.05;2.95;;;;;;;5.18;100.00;100980.66;5076300;28;20085;-39
2024/03/23 04:41:22;;;;;;;10.57;2.83;;;;;;;5.18;100.00;100978.81;5075448;28;20021;-39
2024/03/23 04:43:47;;;;;;;8.55;2.80;;;;;;;5.15;100.00;100973.81;5075432;28;20096;-39
2024/03/23 04:46:13;;;;;;;8.27;3.25;;;;;;;5.04;100.00;100963.63;5075280;28;20036;-39
2024/03/23 04:48:38;;;;;;;10.93;3.70;;;;;;;5.07;100.00;100981.97;5075698;28;20033;-39
2024/03/23 04:51:04;;;;;;;9.77;2.80;;;;;;;5.06;100.00;100978.47;5075284;28;20077;-39
2024/03/23 04:53:29;;;;;;;8.05;2.90;;;;;;;5.02;100.00;100979.03;5075228;28;20258;-39
2024/03/23 04:55:56;;;;;;;8.30;2.65;;;;;;;4.99;100.00;100982.94;5075142;28;20475;-39
2024/03/23 04:58:23;;;;;;;9.60;3.00;;;;;;;4.98;100.00;100980.44;5075994;28;20029;-39
2024/03/23 05:00:52;;;;;;;8.77;2.60;;;;;;;4.93;100.00;100980.19;5075654;28;20526;-39
2024/03/23 05:03:19;;;;;;;12.02;4.03;;;;;;;4.88;100.00;100976.25;5074803;28;20032;-39
2024/03/23 05:05:44;;;;;;;9.73;3.17;;;;;;;4.88;100.00;100970.88;5075313;28;20055;-39
2024/03/23 05:08:10;;;;;;;6.33;2.67;;;;;;;4.88;100.00;100964.66;5075020;28;20028;-39
2024/03/23 05:10:35;;;;;;;7.93;3.20;;;;;;;4.89;100.00;100975.22;5075229;28;20268;-39
2024/03/23 05:13:01;;;;;;;9.48;3.20;;;;;;;4.83;100.00;100972.44;5075124;28;20522;-39
2024/03/23 05:15:27;;;;;;;8.70;3.17;;;;;;;4.82;100.00;100968.13;5074508;28;20388;-39
2024/03/23 05:17:52;;;;;;;8.05;3.30;;;;;;;4.83;100.00;100967.09;5074808;28;20091;-38
2024/03/23 05:20:19;;;;;;;8.17;3.53;;;;;;;4.74;100.00;100962.91;5075049;28;20439;-39
2024/03/23 05:22:44;;;;;;;10.43;4.35;;;;;;;4.77;100.00;100974.03;5074613;28;20052;-38
2024/03/23 05:25:10;;;;;;;10.73;3.63;;;;;;;4.75;100.00;100969.91;5074918;28;20060;-38
2024/03/23 05:27:36;;;;;;;12.70;4.20;;;;;;;4.62;100.00;100955.34;5074301;28;20055;-39
2024/03/23 05:30:01;;;;;;;;;;;;;;;4.83;100.00;100967.94;5074942;28;20039;-39
2024/03/23 05:32:27;;;;;;;7.20;3.40;;;;;;;4.76;100.00;100969.72;5074756;28;19908;-39
2024/03/23 05:34:56;;;;;;;10.10;3.67;;;;;;;4.71;100.00;100968.63;5074944;28;20401;-39
2024/03/23 05:37:22;;;;;;;11.25;3.80;;;;;;;4.67;100.00;100961.97;5074056;28;20028;-40
2024/03/23 05:39:49;;;;;;;;;;;;;;;4.79;100.00;100972.03;5074490;28;20075;-39
2024/03/23 05:42:18;;;;;;;9.23;3.80;;;;;;;4.73;100.00;100967.41;5074247;28;19915;-39
2024/03/23 05:44:46;;;;;;;11.45;4.40;;;;;;;4.61;100.00;100947.50;5075067;28;20043;-39
2024/03/23 05:47:16;;;;;;;15.07;4.97;;;;;;;4.71;100.00;100963.28;5073909;28;20567;-40
2024/03/23 05:49:42;;;;;;;10.70;4.70;;;;;;;4.70;100.00;100967.81;5074475;28;20028;-39
2024/03/23 05:52:08;;;;;;;10.25;4.00;;;;;;;4.74;100.00;100978.97;5074118;28;20047;-40
2024/03/23 05:54:34;;;;;;;;;;;;;;;4.83;100.00;100977.81;5074653;28;20484;-40
2024/03/23 05:56:59;;;;;;;9.90;4.40;;;;;;;4.76;100.00;100972.41;5073995;28;19965;-39
2024/03/23 05:59:25;;;;;;;9.30;4.50;;;;;;;4.79;100.00;100969.34;5074307;28;20062;-39
2024/03/23 06:01:50;;;;;;;12.00;4.38;;;;;;;4.82;100.00;100965.44;5074747;28;20028;-40
2024/03/23 06:04:15;;;;;;;9.60;4.63;;;;;;;4.79;100.00;100964.00;5073820;28;20024;-40
2024/03/23 06:06:41;;;;;;;11.43;4.60;;;;;;;4.90;100.00;100968.84;5074147;28;20033;-40
2024/03/23 06:09:06;;;;;;;8.30;3.83;;;;;;;4.91;100.00;100973.16;5074445;28;20649;-38
2024/03/23 06:11:31;;;;;;;9.50;4.47;;;;;;;4.98;100.00;100969.72;5073754;28;20059;-40
2024/03/23 06:13:57;;;;;;;10.60;4.10;;;;;;;5.00;100.00;100970.38;5073844;28;20118;-40
2024/03/23 06:16:25;;;;;;;10.23;4.13;;;;;;;4.98;100.00;100972.41;5073718;28;20029;-40
2024/03/23 06:18:51;;;;;;;11.70;4.45;;;;;;;4.97;100.00;100976.09;5074509;28;20021;-39
2024/03/23 06:21:16;;;;;;;15.13;5.00;;;;;;;5.05;100.00;100984.84;5073694;28;20153;-38
2024/03/23 06:23:42;;;;;;;14.13;4.93;;;;;;;5.08;100.00;100980.97;5074245;28;20112;-38
2024/03/23 06:26:08;;;;;;;11.68;4.15;;;;;;;5.13;100.00;100963.28;5074400;28;20346;-40
2024/03/23 06:28:34;;;;;;;10.40;4.72;;;;;;;5.31;100.00;100981.59;5074146;28;20032;-39
2024/03/23 06:30:59;;;;;;;9.97;4.57;;;;;;;5.39;100.00;100983.31;5073210;28;20465;-38
2024/03/23 06:33:25;;;;;;;9.65;4.60;;;;;;;5.45;100.00;100973.66;5074035;28;20290;-39
2024/03/23 06:35:52;;;;;;;10.17;4.20;;;;;;;5.48;100.00;100981.31;5073685;28;20449;-39
2024/03/23 06:38:17;;;;;;;9.93;4.15;;;;;;;5.47;100.00;100985.03;5073465;28;20035;-39
2024/03/23 06:40:47;;;;;;;14.52;4.85;;;;;;;5.46;100.00;100978.00;5073744;28;20115;-39
2024/03/23 06:43:15;;;;;;;10.07;3.83;;;;;;;5.48;100.00;100984.00;5073353;28;20060;-38
2024/03/23 06:45:40;;;;;;;11.32;4.10;;;;;;;5.47;100.00;100966.25;5074163;28;20051;-40
2024/03/23 06:48:07;;;;;;;9.97;3.93;;;;;;;5.55;100.00;100982.19;5073664;28;20032;-40
2024/03/23 06:50:33;;;;;;;12.52;3.92;;;;;;;5.53;100.00;100979.72;5073319;28;20025;-40
2024/03/23 06:52:59;;;;;;;;;;;;;;;5.68;100.00;100983.13;5073784;28;20032;-40
2024/03/23 06:55:26;;;;;;;8.57;3.78;;;;;;;5.58;100.00;100984.50;5073953;28;19916;-40
2024/03/23 06:57:52;;;;;;;8.18;3.25;;;;;;;5.59;100.00;100986.97;5072901;28;20029;-39
2024/03/23 07:00:17;;;;;;;9.77;3.53;;;;;;;5.67;100.00;100986.00;5073297;28;20033;-39
2024/03/23 07:02:46;;;;;;;10.95;3.45;;;;;;;5.72;100.00;100988.13;5072904;28;20029;-39
2024/03/23 07:05:12;;;;;;;8.85;2.95;;;;;;;5.78;100.00;100982.78;5073717;28;20052;-38
2024/03/23 07:07:38;;;;;;;8.83;3.77;;;;;;;5.91;100.00;100990.97;5073250;28;20071;-39
2024/03/23 07:10:05;;;;;;;10.93;3.78;;;;;;;6.01;100.00;100992.47;5073171;28;20060;-39
2024/03/23 07:12:30;;;;;;;12.27;2.70;;;;;;;6.05;100.00;101005.31;5072811;28;20028;-39
2024/03/23 07:14:56;;;;;;;7.67;2.70;;;;;;;6.04;100.00;100986.69;5073181;28;20128;-39
2024/03/23 07:17:21;;;;;;;7.27;2.43;;;;;;;6.04;100.00;101003.63;5076913;28;20036;-39
2024/03/23 07:19:46;;;;;;;8.43;2.20;;;;;;;5.89;100.00;100990.28;5076878;28;20077;-39
2024/03/23 07:22:12;;;;;;;8.67;2.67;;;;;;;5.93;100.00;101002.31;5077067;28;20107;-39
2024/03/23 07:24:39;;;;;;;5.90;2.10;;;;;;;5.86;100.00;100998.75;5077377;28;20055;-39
2024/03/23 07:27:04;;;;;;;9.43;2.50;;;;;;;5.83;100.00;100993.75;5076998;28;20025;-40
2024/03/23 07:29:30;;;;;;;8.80;2.45;;;;;;;5.79;100.00;100992.47;5077502;28;20385;-39
2024/03/23 07:31:55;;;;;;;6.67;2.43;;;;;;;5.83;100.00;100996.44;5076622;28;20374;-39
2024/03/23 07:34:21;;;;;;;5.57;2.07;;;;;;;5.84;100.00;101002.63;5076770;28;20523;-40
2024/03/23 07:36:46;;;;;;;8.70;2.30;;;;;;;5.78;100.00;100988.16;5076433;28;20029;-39
2024/03/23 07:39:11;;;;;;;10.13;3.07;;;;;;;5.97;100.00;100989.34;5076453;28;20107;-40
2024/03/23 07:41:37;;;;;;;9.67;2.63;;;;;;;6.10;100.00;100989.44;5076391;28;20291;-40
2024/03/23 07:44:02;;;;;;;7.10;2.37;;;;;;;6.14;100.00;100987.16;5076648;28;20021;-39
2024/03/23 07:46:27;;;;;;;8.37;2.23;;;;;;;6.23;100.00;100990.50;5076669;28;20487;-39
2024/03/23 07:48:53;;;;;;;7.00;2.00;;;;;;;6.22;100.00;100988.84;5077051;28;20255;-39
2024/03/23 07:51:23;;;;;;;6.90;2.17;;;;;;;6.18;100.00;100978.50;5076822;28;20036;-39
2024/03/23 07:53:48;;;;;;;9.50;2.30;;;;;;;6.29;100.00;100982.47;5076605;28;20555;-39
2024/03/23 07:56:15;;;;;;;8.10;2.50;;;;;;;6.40;100.00;100979.25;5075963;28;20025;-39
2024/03/23 07:58:41;;;;;;;11.55;3.55;;;;;;;6.58;100.00;100988.59;5076901;28;20028;-39
2024/03/23 08:01:14;;;;;;;11.25;2.42;;;;;;;6.67;100.00;100987.38;5076025;28;20029;-39
2024/03/23 08:03:41;;;;;;;13.10;2.83;;;;;;;6.65;100.00;100968.78;5077001;28;20029;-40
2024/03/23 08:06:08;;;;;;;8.23;2.50;;;;;;;6.90;100.00;100981.69;5076234;28;20037;-39
2024/03/23 08:08:33;;;;;;;10.00;2.65;;;;;;;6.96;100.00;100987.06;5077011;28;20029;-39
2024/03/23 08:10:59;;;;;;;10.50;2.60;;;;;;;7.06;100.00;100975.91;5076380;28;20050;-39
2024/03/23 08:13:24;;;;;;;9.30;2.23;;;;;;;7.11;100.00;100981.50;5076665;28;20467;-39
2024/03/23 08:15:49;;;;;;;9.90;2.13;;;;;;;7.18;100.00;100974.28;5076536;28;20028;-39
2024/03/23 08:18:18;;;;;;;10.30;2.67;;;;;;;7.18;100.00;100986.91;5076604;28;20040;-39
2024/03/23 08:20:43;;;;;;;8.15;2.65;;;;;;;7.21;100.00;100987.28;5075709;28;20468;-39
2024/03/23 08:23:08;;;;;;;8.63;2.37;;;;;;;7.45;100.00;100985.03;5075997;28;20021;-39
2024/03/23 08:25:34;;;;;;;9.33;2.37;;;;;;;7.55;100.00;100990.84;5075642;28;20247;-39
2024/03/23 08:28:00;;;;;;;9.00;2.33;;;;;;;7.55;100.00;100985.44;5075361;28;20281;-39
2024/03/23 08:30:26;;;;;;;6.68;2.38;;;;;;;7.51;100.00;100992.28;5076465;28;20052;-39
2024/03/23 08:32:51;;;;;;;9.02;2.25;;;;;;;7.48;100.00;100982.78;5075991;28;20025;-40
2024/03/23 08:35:17;;;;;;;6.30;1.80;;;;;;;7.48;100.00;100974.69;5076004;28;20029;-40
2024/03/23 08:37:42;;;;;;;8.27;2.30;;;;;;;7.44;100.00;100972.63;5076454;28;20464;-40
2024/03/23 08:40:08;;;;;;;8.23;2.07;;;;;;;7.47;100.00;100975.75;5075504;28;20036;-39
2024/03/23 08:42:34;;;;;;;6.30;1.80;;;;;;;7.53;100.00;100982.16;5075818;28;20461;-39
2024/03/23 08:44:59;;;;;;;9.80;2.38;;;;;;;7.54;100.00;100966.84;5075374;28;20032;-39
2024/03/23 08:47:24;;;;;;;5.77;1.83;;;;;;;7.55;100.00;100973.88;5075547;28;20041;-39
2024/03/23 08:49:50;;;;;;;7.97;1.90;;;;;;;7.71;100.00;100973.44;5075708;28;20025;-39
2024/03/23 08:52:16;;;;;;;7.28;2.30;;;;;;;7.84;100.00;100965.34;5075179;28;20097;-39
2024/03/23 08:54:41;;;;;;;8.60;2.40;;;;;;;7.84;100.00;100962.66;5075778;28;20053;-39
2024/03/23 08:57:07;;;;;;;8.07;2.07;;;;;;;7.84;100.00;100959.13;5075017;28;20117;-39
2024/03/23 08:59:32;;;;;;;4.82;1.63;;;;;;;7.90;100.00;100972.56;5075308;28;20020;-39
2024/03/23 09:01:58;;;;;;;8.18;1.80;;;;;;;7.78;100.00;100931.19;5075230;28;20068;-39
2024/03/23 09:04:23;;;;;;;10.33;3.00;;;;;;;7.89;100.00;100960.16;5075057;28;20038;-39
2024/03/23 09:06:48;;;;;;;8.00;1.90;;;;;;;7.77;100.00;100961.03;5075216;28;20066;-39
2024/03/23 09:09:14;;;;;;;6.00;1.97;;;;;;;7.68;100.00;100974.69;5075962;28;20259;-38
2024/03/23 09:11:39;;;;;;;6.03;1.60;;;;;;;7.55;100.00;100971.16;5075002;28;20044;-39
2024/03/23 09:14:04;;;;;;;8.77;1.92;;;;;;;7.39;100.00;100975.94;5074722;28;20091;-39
2024/03/23 09:16:30;;;;;;;9.47;2.00;;;;;;;7.34;100.00;100980.28;5074874;28;20104;-38
2024/03/23 09:18:55;;;;;;;7.47;2.20;;;;;;;7.19;100.00;100978.63;5074707;28;20024;-39
2024/03/23 09:21:21;;;;;;;7.50;1.90;;;;;;;7.16;100.00;100975.50;5075321;28;20464;-39
2024/03/23 09:23:46;;;;;;;6.20;1.83;;;;;;;7.12;100.00;100979.63;5075669;28;20078;-39
2024/03/23 09:26:12;;;;;;;5.75;1.48;;;;;;;7.13;100.00;100970.56;5075000;28;20738;-39
2024/03/23 09:28:37;;;;;;;5.80;1.47;;;;;;;7.20;100.00;100960.63;5074448;28;20036;-39
2024/03/23 09:31:04;;;;;;;4.75;1.52;;;;;;;7.52;100.00;100958.97;5074402;28;20322;-40
2024/03/23 09:33:29;;;;;;;6.63;1.60;;;;;;;7.71;100.00;100947.38;5074866;28;20035;-39
2024/03/23 09:35:56;;;;;;;7.38;1.80;;;;;;;7.93;100.00;100956.00;5074510;28;20028;-40
2024/03/23 09:38:22;;;;;;;7.50;2.78;;;;;;;7.95;100.00;100964.72;5074230;28;20017;-40
2024/03/23 09:40:49;;;;;;;6.47;1.80;;;;;;;8.13;100.00;100949.72;5074269;28;20477;-40
2024/03/23 09:43:15;;;;;;;6.82;2.10;;;;;;;8.22;100.00;100945.78;5073109;28;20465;-39
2024/03/23 09:45:41;;;;;;;7.17;2.10;;;;;;;8.31;100.00;100941.81;5074429;28;20029;-40
2024/03/23 09:48:10;;;;;;;6.25;1.92;;;;;;;8.38;100.00;100942.63;5074091;28;20726;-39
2024/03/23 09:50:42;;;;;;;7.68;1.80;;;;;;;8.42;100.00;100930.38;5074498;28;20037;-39
2024/03/23 09:53:09;;;;;;;8.27;2.00;;;;;;;8.70;100.00;100929.19;5075100;28;20066;-39
2024/03/23 09:55:37;;;;;;;4.70;1.40;;;;;;;8.90;100.00;100946.09;5073859;28;20540;-39
2024/03/23 09:58:04;;;;;;;5.80;1.90;;;;;;;8.95;100.00;100943.56;5074058;28;20020;-39
2024/03/23 10:00:31;;;;;;;8.20;2.10;;;;;;;8.95;100.00;100942.72;5074311;28;20030;-39
2024/03/23 10:03:01;;;;;;;7.28;2.28;;;;;;;8.82;100.00;100942.81;5073679;28;20035;-39
2024/03/23 10:05:27;;;;;;;9.15;1.95;;;;;;;8.59;100.00;100936.09;5074522;28;20441;-39
2024/03/23 10:07:53;;;;;;;;;;;;;;;8.65;100.00;100945.19;5074265;28;20036;-39
2024/03/23 10:10:19;;;;;;;4.65;1.67;;;;;;;8.44;100.00;100941.78;5073847;28;19912;-39
2024/03/23 10:12:47;;;;;;;;;;;;;;;8.68;100.00;100958.22;5074190;28;20032;-38
2024/03/23 10:15:18;;;;;;;4.63;1.40;;;;;;;8.40;100.00;100950.50;5074561;28;19982;-38
2024/03/23 10:17:44;;;;;;;7.13;1.65;;;;;;;8.22;100.00;100956.53;5074316;28;20029;-40
2024/03/23 10:20:11;;;;;;;5.15;1.30;;;;;;;8.13;100.00;100968.59;5074017;28;20112;-39
2024/03/23 10:22:39;;;;;;;5.35;1.50;;;;;;;8.29;100.00;100961.91;5073398;28;20074;-40
2024/03/23 10:25:11;;;;;;;4.00;1.40;;;;;;;8.52;100.00;100962.25;5073402;28;20476;-39
2024/03/23 10:27:36;;;;;;;4.72;1.40;;;;;;;8.70;100.00;100956.97;5073653;28;20031;-39
2024/03/23 10:30:12;;;;;;;8.05;1.80;;;;;;;8.78;100.00;100950.50;5073927;28;20024;-39
2024/03/23 10:32:38;;;;;;;5.28;1.65;;;;;;;8.59;100.00;100963.06;5071937;28;20404;-39
2024/03/23 10:35:24;;;;;;;5.20;1.38;;;;;;;8.41;100.00;100961.06;5074052;28;20020;-40
2024/03/23 10:37:51;;;;;;;4.93;1.33;;;;;;;8.12;100.00;100996.56;5074298;28;20024;-39
2024/03/23 10:40:17;;;;;;;5.35;1.48;;;;;;;7.93;100.00;100995.56;5074034;28;20033;-39
2024/03/23 10:42:44;;;;;;;3.20;1.25;;;;;;;7.65;100.00;100968.88;5073407;28;20056;-40
2024/03/23 10:45:09;;;;;;;;;;;;;;;7.71;100.00;100968.03;5074180;28;20028;-40
2024/03/23 10:47:36;;;;;;;5.90;1.38;;;;;;;7.41;100.00;100968.47;5073221;28;19909;-39
2024/03/23 10:50:05;;;;;;;4.82;1.27;;;;;;;7.34;100.00;100977.59;5073530;28;20055;-39
2024/03/23 10:52:33;;;;;;;4.80;1.13;;;;;;;7.36;100.00;100957.50;5072971;28;20105;-39
2024/03/23 10:55:00;;;;;;;4.10;1.30;;;;;;;7.71;100.00;100960.81;5073531;28;20485;-40
2024/03/23 10:57:49;;;;;;;6.00;1.50;;;;;;;8.01;100.00;100952.28;5073249;28;20036;-39
2024/03/23 11:00:16;;;;;;;7.38;1.55;;;;;;;8.36;100.00;100952.78;5073278;28;20020;-39
2024/03/23 11:02:41;;;;;;;6.65;1.50;;;;;;;8.62;100.00;100961.78;5073473;28;20107;-39
2024/03/23 11:05:26;;;;;;;6.45;1.50;;;;;;;8.68;100.00;100952.84;5073862;28;20028;-39
2024/03/23 11:07:53;;;;;;;8.27;1.60;;;;;;;8.72;100.00;100948.66;5073114;28;20065;-39
2024/03/23 11:10:32;;;;;;;5.05;1.60;;;;;;;8.65;100.00;100977.56;5073521;28;20109;-39
2024/03/23 11:12:58;;;;;;;5.22;1.20;;;;;;;8.27;100.00;100970.22;5073116;28;20028;-39
2024/03/23 11:15:24;;;;;;;4.80;1.52;;;;;;;8.03;100.00;100966.34;5073371;28;20089;-39
2024/03/23 11:18:08;;;;;;;3.20;0.88;;;;;;;7.87;100.00;100974.88;5073115;28;20032;-39
2024/03/23 11:20:37;;;;;;;2.80;0.90;;;;;;;7.54;100.00;100964.13;5073104;28;20073;-39